Time;durP1;ratioP1;P1;durP2;ratioP2;P2;SDS_P1;SDS_P2;PMS_P1;PMS_P2;Temp;Humidity;BMP_temperature;BMP_pressure;BME280_temperature;BME280_humidity;BME280_pressure;Samples;Min_cycle;Max_cycle;Signal;HPM_P1;HPM_P2
2023/11/06 00:00:18;;;;;;;0.70;0.30;;;10.40;82.60;;;;;;4959704;28;20034;-63
2023/11/06 00:02:45;;;;;;;2.35;0.30;;;10.40;82.60;;;;;;4977576;28;20045;-62
2023/11/06 00:05:10;;;;;;;2.15;0.40;;;10.40;82.70;;;;;;4978219;28;20490;-63
2023/11/06 00:07:39;;;;;;;0.75;0.20;;;10.40;82.70;;;;;;4978310;28;20035;-63
2023/11/06 00:10:08;;;;;;;1.10;0.40;;;10.40;82.70;;;;;;4962891;28;20043;-63
2023/11/06 00:12:35;;;;;;;1.25;0.40;;;10.40;82.70;;;;;;4979903;28;20031;-63
2023/11/06 00:15:01;;;;;;;1.95;0.43;;;10.40;82.70;;;;;;4962451;28;20039;-63
2023/11/06 00:17:26;;;;;;;4.20;0.50;;;10.40;82.70;;;;;;4980424;28;20034;-63
2023/11/06 00:19:52;;;;;;;2.03;0.28;;;10.40;82.70;;;;;;4980458;28;20041;-62
2023/11/06 00:22:17;;;;;;;3.72;0.30;;;10.40;82.80;;;;;;4980500;28;20414;-63
2023/11/06 00:24:43;;;;;;;3.47;0.35;;;10.40;83.60;;;;;;4979713;28;20061;-63
2023/11/06 00:27:09;;;;;;;2.70;0.40;;;10.40;82.70;;;;;;4980605;28;20101;-62
2023/11/06 00:29:35;;;;;;;1.02;0.22;;;10.40;82.80;;;;;;4980897;28;20034;-63
2023/11/06 00:32:02;;;;;;;2.10;0.50;;;10.40;82.80;;;;;;4981076;28;20209;-63
2023/11/06 00:34:28;;;;;;;1.83;0.40;;;10.40;82.90;;;;;;4979835;28;20418;-63
2023/11/06 00:36:54;;;;;;;1.75;0.40;;;10.40;82.80;;;;;;4980013;28;20034;-63
2023/11/06 00:39:20;;;;;;;0.95;0.30;;;10.40;82.80;;;;;;4980460;28;20593;-63
2023/11/06 00:41:46;;;;;;;2.25;0.30;;;10.40;82.70;;;;;;4980231;28;20101;-63
2023/11/06 00:44:11;;;;;;;2.08;0.30;;;10.40;82.70;;;;;;4980626;28;20034;-63
2023/11/06 00:46:37;;;;;;;0.77;0.20;;;10.40;82.70;;;;;;4979940;28;20030;-63
2023/11/06 00:49:03;;;;;;;1.23;0.30;;;10.40;82.60;;;;;;4980398;28;20070;-63
2023/11/06 00:51:29;;;;;;;1.83;0.30;;;10.30;82.50;;;;;;4980068;28;20069;-63
2023/11/06 00:53:54;;;;;;;1.27;0.20;;;10.40;83.40;;;;;;4980147;28;20034;-63
2023/11/06 00:56:20;;;;;;;0.77;0.20;;;10.30;82.40;;;;;;4979145;28;20035;-63
2023/11/06 00:58:46;;;;;;;3.08;0.30;;;10.40;82.40;;;;;;4980496;28;20075;-63
2023/11/06 01:01:13;;;;;;;0.47;0.20;;;10.30;82.30;;;;;;4980468;28;20039;-63
2023/11/06 01:03:39;;;;;;;0.73;0.17;;;10.40;82.30;;;;;;4981442;28;20525;-63
2023/11/06 01:06:05;;;;;;;0.28;0.20;;;10.40;82.20;;;;;;4979867;28;20065;-63
2023/11/06 01:08:30;;;;;;;1.77;0.20;;;10.40;82.20;;;;;;4978943;28;20023;-63
2023/11/06 01:10:56;;;;;;;1.70;0.28;;;10.30;82.10;;;;;;4981086;28;20084;-63
2023/11/06 01:13:22;;;;;;;1.35;0.20;;;10.30;82.10;;;;;;4969458;28;20031;-63
2023/11/06 01:15:48;;;;;;;1.65;0.35;;;10.40;82.20;;;;;;4979854;28;20595;-63
2023/11/06 01:18:14;;;;;;;1.48;0.22;;;10.30;82.10;;;;;;4979796;28;20112;-63
2023/11/06 01:20:40;;;;;;;1.38;0.30;;;10.40;82.20;;;;;;4980456;28;20608;-63
2023/11/06 01:23:06;;;;;;;2.22;0.55;;;10.30;82.10;;;;;;4980037;28;20195;-63
2023/11/06 01:25:32;;;;;;;1.25;0.30;;;10.30;82.10;;;;;;4978416;28;20126;-63
2023/11/06 01:27:58;;;;;;;0.82;0.28;;;10.30;82.00;;;;;;4979763;28;20529;-63
2023/11/06 01:30:24;;;;;;;1.60;0.32;;;10.30;82.10;;;;;;4979453;28;20422;-63
2023/11/06 01:32:50;;;;;;;0.75;0.20;;;10.30;82.00;;;;;;4979843;28;20085;-62
2023/11/06 01:35:19;;;;;;;1.65;0.20;;;10.30;82.00;;;;;;4979636;28;20046;-63
2023/11/06 01:37:45;;;;;;;1.70;0.10;;;10.30;82.00;;;;;;4980260;28;20498;-63
2023/11/06 01:40:11;;;;;;;1.13;0.20;;;10.40;82.10;;;;;;4979179;28;20038;-63
2023/11/06 01:42:40;;;;;;;2.80;0.28;;;10.40;82.20;;;;;;4978684;28;20057;-63
2023/11/06 01:45:06;;;;;;;1.33;0.20;;;10.30;82.20;;;;;;4979327;28;20399;-64
2023/11/06 01:47:32;;;;;;;1.55;0.20;;;10.30;82.20;;;;;;4979507;28;20038;-63
2023/11/06 01:49:58;;;;;;;2.58;0.20;;;10.30;82.30;;;;;;4979348;28;20104;-63
2023/11/06 01:52:24;;;;;;;1.90;0.17;;;10.30;82.10;;;;;;4979378;28;20160;-63
2023/11/06 01:54:50;;;;;;;1.50;0.30;;;10.40;82.20;;;;;;4978936;28;20045;-63
2023/11/06 01:57:17;;;;;;;1.98;0.30;;;10.30;82.20;;;;;;4979624;28;20039;-63
2023/11/06 01:59:44;;;;;;;0.70;0.20;;;10.30;82.10;;;;;;4978710;28;20051;-63
2023/11/06 02:02:11;;;;;;;1.63;0.30;;;10.30;82.00;;;;;;4983527;28;20058;-63
2023/11/06 02:04:40;;;;;;;2.40;0.30;;;10.30;82.10;;;;;;4978287;28;20031;-63
2023/11/06 02:07:07;;;;;;;1.25;0.30;;;10.40;82.00;;;;;;4979312;28;20034;-63
2023/11/06 02:09:33;;;;;;;1.33;0.30;;;10.30;81.90;;;;;;4977755;28;20372;-63
2023/11/06 02:11:59;;;;;;;1.90;0.40;;;10.30;81.90;;;;;;4979434;28;20037;-63
2023/11/06 02:14:25;;;;;;;1.73;0.40;;;10.40;81.90;;;;;;4978961;28;20030;-64
2023/11/06 02:16:53;;;;;;;1.38;0.20;;;10.30;81.80;;;;;;4978030;28;20042;-63
2023/11/06 02:19:20;;;;;;;1.95;0.20;;;10.30;81.70;;;;;;4978673;28;20074;-63
2023/11/06 02:21:52;;;;;;;1.33;0.20;;;10.30;81.70;;;;;;4978257;28;20031;-63
2023/11/06 02:24:17;;;;;;;1.77;0.30;;;10.30;81.70;;;;;;4978704;28;20027;-63
2023/11/06 02:26:53;;;;;;;1.92;0.30;;;10.30;81.70;;;;;;4978273;28;20307;-63
2023/11/06 02:29:19;;;;;;;1.60;0.20;;;10.30;81.70;;;;;;4978869;28;20078;-63
2023/11/06 02:31:44;;;;;;;1.40;0.20;;;10.30;81.70;;;;;;4978139;28;20058;-63
2023/11/06 02:34:10;;;;;;;1.55;0.40;;;10.30;81.70;;;;;;4979265;28;20047;-63
2023/11/06 02:36:35;;;;;;;1.60;0.20;;;10.30;81.80;;;;;;4978314;28;20119;-63
2023/11/06 02:39:01;;;;;;;0.90;0.30;;;10.30;81.80;;;;;;4979294;28;20038;-63
2023/11/06 02:41:26;;;;;;;0.85;0.30;;;10.30;81.80;;;;;;4978450;28;20591;-63
2023/11/06 02:43:52;;;;;;;0.68;0.30;;;10.30;81.90;;;;;;4978735;28;20038;-63
2023/11/06 02:46:17;;;;;;;0.82;0.20;;;10.30;81.90;;;;;;4979558;28;20035;-62
2023/11/06 02:48:43;;;;;;;2.20;0.20;;;10.30;81.90;;;;;;4978694;28;20046;-63
2023/11/06 02:51:09;;;;;;;1.77;0.22;;;10.30;82.00;;;;;;4978838;28;20528;-63
2023/11/06 02:53:35;;;;;;;0.82;0.22;;;10.30;82.10;;;;;;4977986;28;20151;-63
2023/11/06 02:56:00;;;;;;;1.02;0.22;;;10.20;82.00;;;;;;4977960;28;20122;-63
2023/11/06 02:58:26;;;;;;;1.23;0.47;;;10.30;82.20;;;;;;4976992;28;20038;-63
2023/11/06 03:00:53;;;;;;;2.42;0.40;;;10.20;82.20;;;;;;4977629;28;20038;-63
2023/11/06 03:03:20;;;;;;;0.90;0.20;;;10.20;82.40;;;;;;4977502;28;20039;-63
2023/11/06 03:05:45;;;;;;;1.17;0.22;;;10.20;82.50;;;;;;4976942;28;20034;-63
2023/11/06 03:08:11;;;;;;;0.93;0.30;;;10.20;82.50;;;;;;4977965;28;20045;-63
2023/11/06 03:10:37;;;;;;;1.98;0.40;;;10.20;82.60;;;;;;4977789;28;20038;-63
2023/11/06 03:13:02;;;;;;;1.33;0.30;;;10.20;82.70;;;;;;4977596;28;20038;-63
2023/11/06 03:15:28;;;;;;;1.55;0.20;;;10.20;82.70;;;;;;4978067;28;20036;-63
2023/11/06 03:17:53;;;;;;;1.08;0.22;;;10.10;82.60;;;;;;4959804;28;20030;-63
2023/11/06 03:20:19;;;;;;;1.52;0.28;;;10.10;82.70;;;;;;4977364;28;20074;-63
2023/11/06 03:22:44;;;;;;;0.85;0.30;;;10.10;82.70;;;;;;4977948;28;20553;-63
2023/11/06 03:25:10;;;;;;;2.13;0.22;;;10.10;82.70;;;;;;4977419;28;20046;-62
2023/11/06 03:27:36;;;;;;;2.38;0.20;;;10.10;82.90;;;;;;4978012;28;20113;-63
2023/11/06 03:30:01;;;;;;;1.23;0.28;;;10.10;82.90;;;;;;4977461;28;20041;-63
2023/11/06 03:32:27;;;;;;;1.63;0.40;;;10.10;83.00;;;;;;4977117;28;20038;-62
2023/11/06 03:34:53;;;;;;;2.17;0.35;;;10.10;83.10;;;;;;4978149;28;20034;-63
2023/11/06 03:37:18;;;;;;;1.35;0.28;;;10.10;83.10;;;;;;4977980;28;20038;-62
2023/11/06 03:39:44;;;;;;;0.80;0.20;;;10.10;83.10;;;;;;4977350;28;20410;-63
2023/11/06 03:42:09;;;;;;;1.58;0.30;;;10.10;83.10;;;;;;4977193;28;20035;-63
2023/11/06 03:44:36;;;;;;;0.57;0.15;;;10.10;83.10;;;;;;4980487;28;20041;-63
2023/11/06 03:47:03;;;;;;;1.02;0.20;;;10.10;83.10;;;;;;4981336;28;20034;-62
2023/11/06 03:49:29;;;;;;;1.95;0.40;;;10.20;83.10;;;;;;4982511;28;20053;-63
2023/11/06 03:51:55;;;;;;;0.88;0.30;;;10.10;83.10;;;;;;4982293;28;20510;-63
2023/11/06 03:54:20;;;;;;;1.02;0.22;;;10.10;83.10;;;;;;4981296;28;20410;-63
2023/11/06 03:56:46;;;;;;;1.73;0.22;;;10.10;83.10;;;;;;4980122;28;20487;-62
2023/11/06 03:59:11;;;;;;;1.02;0.40;;;10.10;83.10;;;;;;4980970;28;20046;-63
2023/11/06 04:01:38;;;;;;;0.82;0.17;;;10.20;83.10;;;;;;4981088;28;20037;-63
2023/11/06 04:04:03;;;;;;;1.02;0.20;;;10.20;83.20;;;;;;4981087;28;20038;-63
2023/11/06 04:06:30;;;;;;;3.33;0.30;;;10.20;83.30;;;;;;4980614;28;20039;-63
2023/11/06 04:08:56;;;;;;;0.70;0.30;;;10.20;83.40;;;;;;4982320;28;20091;-63
2023/11/06 04:11:22;;;;;;;0.60;0.30;;;10.20;83.40;;;;;;4982092;28;20110;-63
2023/11/06 04:13:47;;;;;;;1.10;0.30;;;10.30;83.40;;;;;;4980911;28;20630;-63
2023/11/06 04:16:14;;;;;;;0.85;0.25;;;10.30;83.40;;;;;;4980328;28;22515;-63
2023/11/06 04:18:40;;;;;;;2.17;0.30;;;10.30;83.40;;;;;;4979794;28;20034;-63
2023/11/06 04:21:06;;;;;;;2.30;0.22;;;10.30;83.40;;;;;;4980459;28;20112;-63
2023/11/06 04:23:32;;;;;;;1.10;0.20;;;10.30;83.40;;;;;;4980138;28;20027;-63
2023/11/06 04:25:58;;;;;;;2.00;0.45;;;10.40;83.50;;;;;;4980196;28;20082;-63
2023/11/06 04:28:24;;;;;;;1.52;0.20;;;10.40;83.40;;;;;;4979613;28;20070;-63
2023/11/06 04:30:49;;;;;;;1.42;0.30;;;10.40;83.50;;;;;;4980520;28;20517;-63
2023/11/06 04:33:15;;;;;;;1.10;0.30;;;10.40;83.50;;;;;;4980670;28;20506;-63
2023/11/06 04:35:41;;;;;;;2.25;0.30;;;10.50;83.60;;;;;;4979787;28;20042;-63
2023/11/06 04:38:06;;;;;;;1.45;0.50;;;10.50;83.70;;;;;;4980203;28;20069;-63
2023/11/06 04:40:32;;;;;;;1.83;0.30;;;10.50;83.60;;;;;;4978957;28;20031;-62
2023/11/06 04:42:58;;;;;;;2.42;0.30;;;10.40;83.60;;;;;;4980622;28;20037;-63
2023/11/06 04:45:23;;;;;;;1.48;0.50;;;10.50;83.60;;;;;;4979662;28;20051;-63
2023/11/06 04:47:49;;;;;;;1.25;0.50;;;10.50;83.60;;;;;;4979604;28;20686;-63
2023/11/06 04:50:15;;;;;;;1.02;0.40;;;10.50;83.60;;;;;;4979633;28;20042;-63
2023/11/06 04:52:40;;;;;;;1.52;0.30;;;10.50;83.70;;;;;;4979276;28;20454;-63
2023/11/06 04:55:06;;;;;;;0.88;0.32;;;10.50;83.60;;;;;;4979271;28;20446;-63
2023/11/06 04:57:32;;;;;;;0.40;0.30;;;10.50;83.60;;;;;;4979721;28;20494;-63
2023/11/06 04:59:58;;;;;;;1.27;0.35;;;10.50;83.60;;;;;;4980542;28;20062;-63
2023/11/06 05:02:27;;;;;;;0.30;0.30;;;10.50;83.60;;;;;;4979553;28;20238;-63
2023/11/06 05:04:52;;;;;;;0.75;0.40;;;10.50;83.80;;;;;;4979564;28;20086;-62
2023/11/06 05:07:18;;;;;;;2.15;0.47;;;10.50;83.80;;;;;;4980234;28;20034;-63
2023/11/06 05:09:43;;;;;;;1.08;0.60;;;10.50;83.90;;;;;;4980658;28;20740;-63
2023/11/06 05:12:10;;;;;;;1.55;0.30;;;10.50;84.00;;;;;;4981485;28;20478;-62
2023/11/06 05:14:36;;;;;;;1.17;0.65;;;10.50;84.10;;;;;;4961859;28;20065;-63
2023/11/06 05:17:01;;;;;;;1.55;0.50;;;10.50;84.10;;;;;;4980407;28;20180;-63
2023/11/06 05:19:27;;;;;;;3.95;1.52;;;10.40;84.30;;;;;;4980201;28;20118;-63
2023/11/06 05:21:54;;;;;;;2.22;1.38;;;10.40;84.30;;;;;;4979514;28;20402;-63
2023/11/06 05:24:19;;;;;;;2.88;0.80;;;10.40;84.40;;;;;;4980077;28;20062;-63
2023/11/06 05:26:45;;;;;;;1.73;0.80;;;10.40;84.30;;;;;;4979782;28;20577;-63
2023/11/06 05:29:11;;;;;;;1.50;0.60;;;10.40;84.50;;;;;;4980072;28;20052;-63
2023/11/06 05:31:36;;;;;;;0.95;0.50;;;10.40;84.60;;;;;;4978740;28;20734;-63
2023/11/06 05:34:02;;;;;;;0.80;0.80;;;10.40;84.50;;;;;;4979332;28;20538;-62
2023/11/06 05:36:29;;;;;;;1.15;0.60;;;10.40;84.60;;;;;;4978610;28;20039;-63
2023/11/06 05:38:56;;;;;;;0.85;0.40;;;10.40;84.60;;;;;;4978903;28;20590;-63
2023/11/06 05:41:22;;;;;;;1.48;0.45;;;10.30;84.60;;;;;;4978615;28;20154;-63
2023/11/06 05:43:49;;;;;;;1.63;0.45;;;10.30;84.60;;;;;;4978619;28;20162;-63
2023/11/06 05:46:16;;;;;;;1.80;0.43;;;10.30;84.60;;;;;;4978783;28;20041;-63
2023/11/06 05:48:41;;;;;;;1.63;0.45;;;10.30;84.60;;;;;;4978263;28;20093;-63
2023/11/06 05:51:07;;;;;;;2.08;0.60;;;10.30;84.60;;;;;;4979590;28;20039;-63
2023/11/06 05:53:32;;;;;;;1.75;0.22;;;10.30;84.60;;;;;;4978989;28;20026;-63
2023/11/06 05:55:58;;;;;;;1.77;0.43;;;10.30;84.60;;;;;;4978681;28;20434;-63
2023/11/06 05:58:24;;;;;;;2.03;0.40;;;10.30;84.60;;;;;;4978005;28;20074;-63
2023/11/06 06:00:49;;;;;;;1.42;0.43;;;10.30;84.60;;;;;;4978558;28;20053;-63
2023/11/06 06:03:16;;;;;;;3.25;0.60;;;10.30;84.50;;;;;;4979227;28;20482;-63
2023/11/06 06:05:42;;;;;;;2.05;0.50;;;10.30;84.60;;;;;;4978011;28;20033;-63
2023/11/06 06:08:13;;;;;;;2.10;0.50;;;10.20;84.50;;;;;;4979180;28;20039;-63
2023/11/06 06:10:39;;;;;;;1.35;0.38;;;10.20;84.50;;;;;;4978835;28;20026;-63
2023/11/06 06:13:05;;;;;;;1.90;0.40;;;10.20;84.50;;;;;;4978336;28;20483;-63
2023/11/06 06:15:31;;;;;;;1.35;0.22;;;10.20;84.50;;;;;;4978366;28;20138;-63
2023/11/06 06:17:57;;;;;;;2.17;0.28;;;10.20;84.50;;;;;;4978493;28;20409;-63
2023/11/06 06:20:23;;;;;;;2.58;0.40;;;10.20;84.50;;;;;;4978554;28;20027;-63
2023/11/06 06:22:48;;;;;;;2.25;0.40;;;10.20;84.50;;;;;;4978475;28;20117;-63
2023/11/06 06:25:16;;;;;;;1.65;0.43;;;10.20;84.50;;;;;;4978830;28;20122;-61
2023/11/06 06:27:42;;;;;;;2.80;0.50;;;10.20;84.50;;;;;;4960394;28;20732;-63
2023/11/06 06:30:09;;;;;;;2.30;0.35;;;10.20;84.50;;;;;;4978275;28;20035;-63
2023/11/06 06:32:35;;;;;;;2.28;0.40;;;10.20;84.50;;;;;;4977380;28;20513;-63
2023/11/06 06:35:04;;;;;;;1.85;0.40;;;10.20;84.40;;;;;;4978027;28;20043;-63
2023/11/06 06:37:30;;;;;;;1.80;0.30;;;10.20;84.50;;;;;;4978430;28;20035;-63
2023/11/06 06:39:55;;;;;;;1.42;0.35;;;10.20;84.50;;;;;;4977809;28;20038;-63
2023/11/06 06:42:21;;;;;;;1.42;0.68;;;10.20;84.60;;;;;;4960278;28;20038;-63
2023/11/06 06:44:47;;;;;;;1.42;0.30;;;10.20;84.50;;;;;;4976744;28;20038;-62
2023/11/06 06:47:12;;;;;;;1.63;0.57;;;10.20;84.60;;;;;;4978056;28;20125;-63
2023/11/06 06:49:41;;;;;;;1.48;0.40;;;10.20;84.50;;;;;;4978197;28;20449;-63
2023/11/06 06:52:10;;;;;;;1.70;0.40;;;10.20;84.50;;;;;;4977699;28;20478;-63
2023/11/06 06:54:36;;;;;;;0.93;0.45;;;10.20;84.60;;;;;;4977557;28;20447;-63
2023/11/06 06:57:03;;;;;;;1.30;0.32;;;10.20;84.60;;;;;;4977678;28;20035;-63
2023/11/06 06:59:29;;;;;;;0.88;0.40;;;10.20;84.60;;;;;;4978655;28;20038;-63
2023/11/06 07:01:56;;;;;;;2.15;0.50;;;10.20;84.70;;;;;;4977728;28;20089;-62
2023/11/06 07:04:22;;;;;;;1.52;0.40;;;10.20;84.80;;;;;;4977436;28;20057;-64
2023/11/06 07:06:47;;;;;;;2.67;0.60;;;10.20;84.80;;;;;;4976923;28;20038;-63
2023/11/06 07:09:13;;;;;;;1.20;0.60;;;10.20;84.80;;;;;;4977382;28;20034;-63
2023/11/06 07:11:39;;;;;;;2.40;0.25;;;10.20;84.80;;;;;;4979602;28;20426;-63
2023/11/06 07:14:04;;;;;;;1.15;0.35;;;10.20;84.70;;;;;;4977844;28;20019;-63
2023/11/06 07:16:30;;;;;;;2.55;0.38;;;10.20;84.70;;;;;;4977611;28;20126;-63
2023/11/06 07:18:56;;;;;;;2.17;0.50;;;10.30;84.70;;;;;;4980842;28;20042;-63
2023/11/06 07:21:23;;;;;;;0.90;0.50;;;10.30;84.70;;;;;;4981495;28;20122;-63
2023/11/06 07:23:49;;;;;;;1.25;0.45;;;10.30;84.80;;;;;;4981206;28;20054;-63
2023/11/06 07:26:15;;;;;;;1.08;0.30;;;10.30;84.70;;;;;;4980596;28;20034;-62
2023/11/06 07:28:41;;;;;;;1.50;0.38;;;10.30;84.60;;;;;;4980727;28;20034;-63
2023/11/06 07:31:06;;;;;;;2.13;0.50;;;10.30;84.60;;;;;;4980865;28;20383;-63
2023/11/06 07:33:32;;;;;;;0.77;0.47;;;10.40;84.60;;;;;;4982012;28;20026;-62
2023/11/06 07:35:57;;;;;;;0.90;0.25;;;10.40;84.60;;;;;;4980985;28;20288;-63
2023/11/06 07:38:24;;;;;;;1.15;0.15;;;10.40;84.40;;;;;;4981255;28;20038;-63
2023/11/06 07:40:49;;;;;;;0.80;0.30;;;10.50;84.50;;;;;;4980988;28;20034;-63
2023/11/06 07:43:15;;;;;;;1.00;0.22;;;10.50;84.30;;;;;;4981107;28;20038;-63
2023/11/06 07:45:40;;;;;;;1.45;0.30;;;10.60;84.30;;;;;;4981108;28;20023;-63
2023/11/06 07:48:07;;;;;;;1.70;0.40;;;10.60;84.20;;;;;;4981826;28;20435;-63
2023/11/06 07:50:33;;;;;;;0.77;0.50;;;10.60;84.00;;;;;;4981258;28;20061;-63
2023/11/06 07:52:59;;;;;;;0.93;0.50;;;10.70;83.80;;;;;;4980654;28;20041;-62
2023/11/06 07:55:24;;;;;;;0.45;0.40;;;10.70;83.80;;;;;;4980524;28;20046;-63
2023/11/06 07:57:50;;;;;;;0.50;0.25;;;10.70;83.60;;;;;;4981232;28;20038;-63
2023/11/06 08:00:16;;;;;;;1.63;0.55;;;10.80;83.70;;;;;;4981281;28;20490;-62
2023/11/06 08:02:42;;;;;;;0.65;0.50;;;10.80;83.60;;;;;;4980501;28;20498;-63
2023/11/06 08:05:09;;;;;;;0.40;0.30;;;10.90;83.50;;;;;;4981132;28;20041;-63
2023/11/06 08:07:38;;;;;;;1.35;0.40;;;10.90;83.30;;;;;;4981285;28;20042;-63
2023/11/06 08:10:07;;;;;;;1.38;0.30;;;11.00;83.20;;;;;;4981385;28;20026;-63
2023/11/06 08:12:33;;;;;;;1.52;0.20;;;11.00;82.90;;;;;;4980705;28;20034;-63
2023/11/06 08:14:58;;;;;;;0.95;0.38;;;11.10;83.00;;;;;;4980701;28;20619;-63
2023/11/06 08:17:24;;;;;;;0.55;0.20;;;11.10;82.90;;;;;;4980700;28;20038;-62
2023/11/06 08:19:52;;;;;;;0.68;0.20;;;11.10;82.70;;;;;;4980495;28;20031;-63
2023/11/06 08:22:20;;;;;;;2.72;0.60;;;11.20;82.60;;;;;;4980261;28;20502;-63
2023/11/06 08:24:45;;;;;;;2.25;0.80;;;11.20;82.60;;;;;;4980712;28;20061;-63
2023/11/06 08:27:11;;;;;;;1.10;0.40;;;11.30;82.60;;;;;;4980253;28;20541;-63
2023/11/06 08:29:42;;;;;;;0.60;0.30;;;11.30;82.40;;;;;;4979587;28;20043;-63
2023/11/06 08:32:08;;;;;;;1.15;0.30;;;11.40;82.40;;;;;;4980460;28;20031;-63
2023/11/06 08:34:34;;;;;;;0.40;0.15;;;11.40;82.00;;;;;;4979717;28;20037;-63
2023/11/06 08:37:00;;;;;;;2.03;0.28;;;11.50;82.00;;;;;;4980011;28;20331;-63
2023/11/06 08:39:25;;;;;;;1.17;0.28;;;11.60;82.80;;;;;;4980704;28;20557;-63
2023/11/06 08:41:51;;;;;;;0.65;0.20;;;11.60;81.70;;;;;;4980814;28;20066;-62
2023/11/06 08:44:16;;;;;;;1.75;0.20;;;11.70;81.50;;;;;;4980181;28;20039;-63
2023/11/06 08:46:43;;;;;;;1.45;0.40;;;11.80;81.40;;;;;;4978683;28;20041;-63
2023/11/06 08:49:09;;;;;;;0.70;0.30;;;11.80;81.20;;;;;;4979882;28;20022;-63
2023/11/06 08:51:34;;;;;;;0.65;0.20;;;11.90;81.00;;;;;;4979697;28;20048;-62
2023/11/06 08:54:00;;;;;;;0.65;0.30;;;11.90;80.90;;;;;;4979322;28;20486;-63
2023/11/06 08:56:29;;;;;;;1.23;0.50;;;12.00;80.80;;;;;;4978937;28;20041;-63
2023/11/06 08:58:55;;;;;;;0.85;0.20;;;12.00;80.60;;;;;;4981319;28;20031;-62
2023/11/06 09:01:21;;;;;;;1.85;0.40;;;12.10;80.60;;;;;;4978246;28;20038;-63
2023/11/06 09:03:46;;;;;;;1.35;0.20;;;12.20;80.30;;;;;;4981045;28;20053;-63
2023/11/06 09:06:12;;;;;;;1.38;0.25;;;12.20;80.40;;;;;;4980699;28;20037;-63
2023/11/06 09:08:38;;;;;;;0.65;0.30;;;12.20;80.30;;;;;;4980680;28;20058;-63
2023/11/06 09:11:04;;;;;;;1.10;0.25;;;12.30;79.70;;;;;;4981244;28;20398;-63
2023/11/06 09:13:35;;;;;;;0.93;0.40;;;12.40;79.50;;;;;;4981594;28;20498;-63
2023/11/06 09:16:04;;;;;;;1.42;0.20;;;12.40;79.10;;;;;;4963121;28;20437;-63
2023/11/06 09:18:29;;;;;;;0.98;0.20;;;12.50;79.20;;;;;;4979856;28;20447;-63
2023/11/06 09:20:55;;;;;;;1.13;0.30;;;12.50;79.00;;;;;;4981020;28;20061;-63
2023/11/06 09:23:21;;;;;;;0.60;0.20;;;12.60;79.10;;;;;;4981238;28;20061;-63
2023/11/06 09:25:47;;;;;;;0.95;0.10;;;12.60;78.90;;;;;;4980757;28;20022;-63
2023/11/06 09:28:13;;;;;;;0.55;0.30;;;12.70;78.90;;;;;;4980734;28;20043;-63
2023/11/06 09:30:43;;;;;;;2.20;0.32;;;12.70;78.70;;;;;;4980502;28;20031;-63
2023/11/06 09:33:08;;;;;;;1.15;0.43;;;12.80;78.20;;;;;;4981748;28;20039;-63
2023/11/06 09:35:34;;;;;;;1.38;0.47;;;12.80;78.20;;;;;;4980117;28;20449;-63
2023/11/06 09:38:00;;;;;;;1.02;0.40;;;12.90;78.90;;;;;;4980580;28;20035;-63
2023/11/06 09:40:29;;;;;;;2.15;0.30;;;12.90;78.00;;;;;;4978696;28;20044;-64
2023/11/06 09:42:55;;;;;;;0.70;0.40;;;12.90;77.50;;;;;;4981334;28;20034;-63
2023/11/06 09:45:21;;;;;;;2.47;0.90;;;13.00;77.50;;;;;;4980140;28;20063;-63
2023/11/06 09:47:52;;;;;;;1.48;0.28;;;13.00;77.50;;;;;;4980178;28;20075;-63
2023/11/06 09:50:24;;;;;;;3.65;0.30;;;13.00;76.50;;;;;;4981070;28;20038;-63
2023/11/06 09:52:55;;;;;;;2.35;0.30;;;13.10;77.70;;;;;;4980079;28;20514;-63
2023/11/06 09:55:22;;;;;;;2.47;0.50;;;13.10;76.50;;;;;;4980184;28;20046;-63
2023/11/06 09:57:49;;;;;;;2.58;0.38;;;13.10;76.40;;;;;;4980193;28;20085;-63
2023/11/06 10:00:18;;;;;;;1.38;0.20;;;13.10;76.50;;;;;;4980725;28;20047;-63
2023/11/06 10:02:44;;;;;;;0.70;0.30;;;13.20;76.50;;;;;;4979579;28;20593;-63
2023/11/06 10:05:14;;;;;;;1.38;0.30;;;13.20;76.70;;;;;;4980221;28;20125;-63
2023/11/06 10:07:54;;;;;;;0.55;0.20;;;13.20;76.50;;;;;;4981023;28;20030;-63
2023/11/06 10:10:22;;;;;;;1.02;0.20;;;13.30;75.90;;;;;;4979980;28;20030;-63
2023/11/06 10:13:12;;;;;;;0.95;0.20;;;13.40;76.10;;;;;;4978806;28;20135;-63
2023/11/06 10:15:38;;;;;;;0.80;0.25;;;13.40;74.90;;;;;;4979910;28;20031;-63
2023/11/06 10:18:15;;;;;;;1.35;0.50;;;13.50;75.60;;;;;;4980004;28;20502;-63
2023/11/06 10:20:47;;;;;;;0.65;0.20;;;13.50;74.60;;;;;;4979650;28;20045;-63
2023/11/06 10:23:24;;;;;;;1.60;0.30;;;13.60;74.90;;;;;;4980656;28;20422;-63
2023/11/06 10:25:51;;;;;;;1.90;0.20;;;13.60;74.60;;;;;;4980039;28;20073;-63
2023/11/06 10:28:18;;;;;;;2.83;0.35;;;13.70;74.60;;;;;;4979686;28;20035;-63
2023/11/06 10:30:54;;;;;;;1.27;0.15;;;13.70;74.80;;;;;;4979519;28;20550;-63
2023/11/06 10:33:21;;;;;;;1.85;0.60;;;13.70;74.00;;;;;;4980216;28;20035;-63
2023/11/06 10:35:47;;;;;;;0.57;0.30;;;13.70;73.70;;;;;;4979866;28;20039;-62
2023/11/06 10:38:43;;;;;;;1.40;0.20;;;13.80;74.10;;;;;;4979131;28;20406;-62
2023/11/06 10:41:25;;;;;;;0.68;0.35;;;13.80;72.90;;;;;;4969304;28;20022;-63
2023/11/06 10:44:01;;;;;;;3.08;0.20;;;13.80;73.10;;;;;;4979682;28;20101;-63
2023/11/06 10:46:37;;;;;;;0.65;0.20;;;13.90;73.30;;;;;;4978666;28;20034;-64
2023/11/06 10:49:23;;;;;;;1.38;0.20;;;13.80;73.10;;;;;;4979477;28;20453;-63
2023/11/06 10:51:52;;;;;;;0.43;0.22;;;13.90;73.30;;;;;;4979476;28;20088;-63
2023/11/06 10:54:19;;;;;;;1.95;0.20;;;13.90;73.80;;;;;;4979175;28;20038;-64
2023/11/06 10:56:47;;;;;;;1.95;0.57;;;13.90;73.70;;;;;;4979052;28;20439;-63
2023/11/06 10:59:14;;;;;;;1.65;0.50;;;13.90;73.70;;;;;;4980361;28;20117;-63
2023/11/06 11:01:40;;;;;;;2.70;0.30;;;13.90;73.60;;;;;;4979456;28;20438;-63
2023/11/06 11:04:10;;;;;;;0.73;0.20;;;14.00;73.50;;;;;;4979287;28;20414;-63
2023/11/06 11:06:40;;;;;;;1.00;0.20;;;14.00;74.30;;;;;;4961072;28;20579;-63
2023/11/06 11:09:10;;;;;;;1.98;0.20;;;14.00;72.80;;;;;;4978824;28;20074;-63
2023/11/06 11:11:38;;;;;;;1.80;0.25;;;14.10;73.20;;;;;;4979284;28;20125;-63
2023/11/06 11:14:06;;;;;;;2.33;0.28;;;14.10;73.00;;;;;;4979943;28;20045;-63
2023/11/06 11:16:42;;;;;;;1.35;0.25;;;14.20;72.60;;;;;;4978576;28;20117;-63
2023/11/06 11:19:27;;;;;;;1.15;0.20;;;14.20;72.10;;;;;;4979050;28;20042;-63
2023/11/06 11:22:19;;;;;;;0.93;0.20;;;14.20;71.30;;;;;;4979465;28;20043;-63
2023/11/06 11:24:54;;;;;;;1.15;0.40;;;14.30;70.80;;;;;;4976868;28;20055;-63
2023/11/06 11:27:27;;;;;;;0.32;0.20;;;14.30;72.00;;;;;;4979070;28;20045;-63
2023/11/06 11:29:53;;;;;;;0.63;0.17;;;14.30;71.40;;;;;;4978862;28;20038;-63
2023/11/06 11:32:22;;;;;;;0.90;0.30;;;14.40;71.50;;;;;;4979722;28;20038;-63
2023/11/06 11:34:47;;;;;;;0.77;0.20;;;14.30;70.60;;;;;;4978747;28;20047;-63
2023/11/06 11:37:29;;;;;;;0.50;0.10;;;14.30;71.00;;;;;;4978991;28;20077;-63
2023/11/06 11:39:57;;;;;;;4.25;0.22;;;14.40;70.50;;;;;;4979436;28;20042;-63
2023/11/06 11:42:24;;;;;;;0.40;0.10;;;14.40;71.30;;;;;;4978410;28;20458;-63
2023/11/06 11:44:58;;;;;;;1.20;0.20;;;14.40;71.30;;;;;;4961046;28;20462;-62
2023/11/06 11:47:23;;;;;;;1.50;0.50;;;14.40;70.90;;;;;;4978699;28;20070;-63
2023/11/06 11:49:50;;;;;;;1.10;0.20;;;14.50;71.10;;;;;;4980144;28;20030;-63
2023/11/06 11:52:39;;;;;;;0.82;0.20;;;14.50;71.00;;;;;;4979369;28;20129;-63
2023/11/06 11:55:39;;;;;;;0.77;0.20;;;14.60;69.40;;;;;;4968912;28;20038;-63
2023/11/06 11:58:07;;;;;;;0.40;0.10;;;14.60;69.50;;;;;;4979248;28;20037;-64
2023/11/06 12:00:39;;;;;;;1.38;0.38;;;14.70;70.40;;;;;;4978629;28;20030;-63
2023/11/06 12:03:16;;;;;;;0.98;0.40;;;14.70;70.00;;;;;;4978875;28;20034;-63
2023/11/06 12:05:43;;;;;;;0.35;0.20;;;14.70;69.40;;;;;;4981767;28;20113;-63
2023/11/06 12:08:19;;;;;;;1.15;0.40;;;14.80;69.40;;;;;;4982410;28;20026;-62
2023/11/06 12:10:46;;;;;;;0.93;0.20;;;14.80;68.30;;;;;;4981353;28;20229;-63
2023/11/06 12:13:22;;;;;;;0.90;0.25;;;14.80;68.80;;;;;;4982847;28;20426;-63
2023/11/06 12:15:49;;;;;;;1.08;0.20;;;14.80;68.90;;;;;;4982525;28;20072;-63
2023/11/06 12:18:16;;;;;;;0.38;0.20;;;14.80;68.70;;;;;;4982389;28;20036;-63
2023/11/06 12:20:44;;;;;;;1.48;0.30;;;14.80;68.40;;;;;;4982231;28;20061;-63
2023/11/06 12:23:09;;;;;;;1.35;0.30;;;14.80;68.60;;;;;;4984043;28;20504;-63
2023/11/06 12:25:38;;;;;;;1.70;0.40;;;14.80;68.30;;;;;;4981225;28;20054;-63
2023/11/06 12:28:06;;;;;;;0.95;0.40;;;14.70;68.60;;;;;;4982121;28;20459;-63
2023/11/06 12:30:36;;;;;;;1.02;0.30;;;14.70;68.90;;;;;;4970763;28;20391;-64
2023/11/06 12:33:15;;;;;;;1.88;0.40;;;14.70;68.40;;;;;;4981833;28;20034;-63
2023/11/06 12:35:45;;;;;;;2.85;0.40;;;14.80;67.60;;;;;;4982218;28;20533;-63
2023/11/06 12:38:11;;;;;;;0.60;0.20;;;14.80;68.20;;;;;;4983224;28;20050;-63
2023/11/06 12:40:44;;;;;;;0.95;0.30;;;14.80;68.80;;;;;;4981618;28;20030;-63
2023/11/06 12:43:13;;;;;;;1.20;0.40;;;14.80;67.90;;;;;;4982122;28;20040;-63
2023/11/06 12:45:40;;;;;;;2.03;0.30;;;14.80;68.30;;;;;;4980915;28;20038;-64
2023/11/06 12:48:21;;;;;;;0.85;0.30;;;14.80;68.60;;;;;;4981653;28;20038;-63